createdAt,value
2023-05-04T00:00:09.459Z,7.72
2023-05-04T00:02:36.157Z,7.77
2023-05-04T00:05:05.384Z,7.74
2023-05-04T00:07:32.117Z,7.72
2023-05-04T00:09:59.325Z,7.74
2023-05-04T00:12:26.011Z,7.71
2023-05-04T00:14:52.751Z,7.68
2023-05-04T00:17:19.469Z,7.67
2023-05-04T00:19:46.251Z,7.70
2023-05-04T00:22:14.405Z,7.73
2023-05-04T00:24:41.085Z,7.71
2023-05-04T00:27:07.794Z,7.70
2023-05-04T00:29:34.526Z,7.72
2023-05-04T00:32:01.352Z,7.70
2023-05-04T00:34:29.086Z,7.69
2023-05-04T00:36:55.832Z,7.70
2023-05-04T00:39:23.935Z,7.66
2023-05-04T00:41:51.013Z,7.61
2023-05-04T00:44:17.720Z,7.66
2023-05-04T00:46:44.707Z,7.63
2023-05-04T00:49:12.630Z,7.62
2023-05-04T00:51:39.614Z,7.62
2023-05-04T00:54:06.429Z,7.61
2023-05-04T00:56:34.768Z,7.61
2023-05-04T00:59:01.590Z,7.61
2023-05-04T01:01:28.958Z,7.57
2023-05-04T01:03:55.946Z,7.56
2023-05-04T01:06:29.849Z,7.54
2023-05-04T01:09:02.693Z,7.59
2023-05-04T01:11:37.099Z,7.56
2023-05-04T01:14:05.468Z,7.59
2023-05-04T01:16:32.181Z,7.59
2023-05-04T01:18:59.076Z,7.58
2023-05-04T01:21:30.362Z,7.57
2023-05-04T01:23:57.552Z,7.50
2023-05-04T01:26:27.473Z,7.51
2023-05-04T01:29:01.886Z,7.53
2023-05-04T01:31:28.700Z,7.55
2023-05-04T01:33:56.481Z,7.52
2023-05-04T01:36:23.719Z,7.50
2023-05-04T01:38:55.616Z,7.50
2023-05-04T01:41:22.283Z,7.50
2023-05-04T01:43:49.149Z,7.48
2023-05-04T01:46:15.901Z,7.46
2023-05-04T01:48:42.696Z,7.44
2023-05-04T01:51:09.415Z,7.44
2023-05-04T01:53:36.072Z,7.41
2023-05-04T01:56:04.418Z,7.45
2023-05-04T01:58:31.169Z,7.38
2023-05-04T02:00:58.158Z,7.32
2023-05-04T02:03:25.091Z,7.35
2023-05-04T02:05:52.276Z,7.34
2023-05-04T02:08:19.337Z,7.39
2023-05-04T02:10:46.085Z,7.44
2023-05-04T02:13:14.579Z,7.43
2023-05-04T02:15:41.566Z,7.38
2023-05-04T02:18:08.444Z,7.39
2023-05-04T02:20:35.237Z,7.38
2023-05-04T02:23:02.102Z,7.38
2023-05-04T02:25:28.810Z,7.39
2023-05-04T02:27:55.544Z,7.36
2023-05-04T02:30:23.776Z,7.36
2023-05-04T02:32:50.598Z,7.34
2023-05-04T02:35:17.286Z,7.35
2023-05-04T02:37:43.968Z,7.33
2023-05-04T02:40:12.523Z,7.34
2023-05-04T02:42:39.255Z,7.38
2023-05-04T02:45:07.555Z,7.36
2023-05-04T02:47:35.813Z,7.37
2023-05-04T02:50:02.993Z,7.41
2023-05-04T02:52:30.098Z,7.36
2023-05-04T02:54:56.833Z,7.37
2023-05-04T02:57:23.609Z,7.36
2023-05-04T02:59:50.804Z,7.46
2023-05-04T03:02:17.567Z,7.48
2023-05-04T03:04:45.719Z,7.42
2023-05-04T03:07:12.542Z,7.40
2023-05-04T03:09:39.334Z,7.42
2023-05-04T03:12:06.309Z,7.51
2023-05-04T03:14:33.054Z,7.47
2023-05-04T03:16:59.902Z,7.42
2023-05-04T03:19:26.857Z,7.47
2023-05-04T03:21:54.988Z,7.41
2023-05-04T03:24:22.122Z,7.41
2023-05-04T03:26:48.826Z,7.45
2023-05-04T03:29:15.762Z,7.49
2023-05-04T03:31:42.630Z,7.51
2023-05-04T03:34:12.569Z,7.47
2023-05-04T03:36:39.370Z,7.43
2023-05-04T03:39:07.608Z,7.38
2023-05-04T03:41:35.150Z,7.46
2023-05-04T03:44:01.878Z,7.46
2023-05-04T03:46:28.547Z,7.39
2023-05-04T03:48:57.084Z,7.42
2023-05-04T03:51:24.458Z,7.49
2023-05-04T03:53:51.181Z,7.49
2023-05-04T03:56:20.030Z,7.53
2023-05-04T03:58:46.763Z,7.53
2023-05-04T04:01:16.262Z,7.52
2023-05-04T04:03:43.969Z,7.54
2023-05-04T04:06:11.608Z,7.56
2023-05-04T04:08:38.496Z,7.56
2023-05-04T04:11:05.420Z,7.52
2023-05-04T04:13:33.653Z,7.55
2023-05-04T04:16:00.773Z,7.56
2023-05-04T04:18:27.533Z,7.59
2023-05-04T04:20:54.326Z,7.56
2023-05-04T04:23:21.191Z,7.60
2023-05-04T04:25:47.871Z,7.58
2023-05-04T04:28:14.883Z,7.60
2023-05-04T04:30:42.994Z,7.61
2023-05-04T04:33:10.210Z,7.62
2023-05-04T04:35:37.376Z,7.68
2023-05-04T04:38:04.257Z,7.67
2023-05-04T04:40:31.086Z,7.66
2023-05-04T04:42:57.873Z,7.68
2023-05-04T04:45:24.612Z,7.73
2023-05-04T04:47:52.972Z,7.74
2023-05-04T04:50:20.129Z,7.75
2023-05-04T04:52:46.901Z,7.79
2023-05-04T04:55:13.883Z,7.86
2023-05-04T04:57:40.586Z,7.88
2023-05-04T05:00:08.721Z,7.83
2023-05-04T05:02:35.617Z,7.97
2023-05-04T05:05:04.539Z,7.98
2023-05-04T05:07:31.424Z,7.99
2023-05-04T05:09:58.398Z,8.00
2023-05-04T05:12:25.224Z,8.01
2023-05-04T05:14:52.141Z,7.92
2023-05-04T05:17:19.666Z,8.03
2023-05-04T05:19:46.425Z,8.13
2023-05-04T05:22:14.984Z,8.16
2023-05-04T05:24:41.750Z,8.21
2023-05-04T05:27:08.544Z,8.23
2023-05-04T05:29:35.320Z,8.22
2023-05-04T05:32:02.061Z,8.22
2023-05-04T05:34:28.738Z,8.26
2023-05-04T05:36:55.472Z,8.32
2023-05-04T05:39:23.634Z,8.40
2023-05-04T05:41:50.578Z,8.41
2023-05-04T05:44:17.596Z,8.37
2023-05-04T05:46:44.403Z,8.40
2023-05-04T05:49:11.245Z,8.51
2023-05-04T05:51:38.130Z,8.54
2023-05-04T05:54:04.891Z,8.54
2023-05-04T05:56:33.066Z,8.48
2023-05-04T05:58:59.718Z,8.44
2023-05-04T06:01:26.497Z,8.48
2023-05-04T06:03:53.556Z,8.52
2023-05-04T06:06:20.381Z,8.46
2023-05-04T06:08:47.280Z,8.48
2023-05-04T06:11:14.038Z,8.49
2023-05-04T06:13:42.144Z,8.55
2023-05-04T06:16:08.877Z,8.54
2023-05-04T06:18:35.637Z,8.51
2023-05-04T06:21:02.423Z,8.47
2023-05-04T06:23:29.204Z,8.59
2023-05-04T06:25:55.967Z,8.57
2023-05-04T06:28:23.221Z,8.70
2023-05-04T06:30:51.416Z,8.64
2023-05-04T06:33:18.137Z,8.71
2023-05-04T06:35:44.902Z,8.70
2023-05-04T06:38:11.591Z,8.72
2023-05-04T06:40:38.346Z,8.89
2023-05-04T06:43:05.255Z,9.02
2023-05-04T06:45:34.254Z,9.14
2023-05-04T14:49:11.027Z,18.95
2023-05-04T14:51:38.040Z,19.20
2023-05-04T14:54:05.198Z,19.44
2023-05-04T14:56:31.888Z,19.25
2023-05-04T14:58:58.644Z,19.07
2023-05-04T15:01:25.405Z,19.42
2023-05-04T15:03:52.448Z,19.19
2023-05-04T15:06:20.736Z,19.19
2023-05-04T15:08:47.526Z,19.41
2023-05-04T15:11:14.336Z,19.27
2023-05-04T15:13:41.312Z,19.02
2023-05-04T15:16:08.149Z,19.10
2023-05-04T15:18:34.902Z,18.93
2023-05-04T15:21:01.721Z,18.98
2023-05-04T15:23:29.809Z,18.94
2023-05-04T15:25:56.519Z,19.01
2023-05-04T15:28:23.316Z,18.98
2023-05-04T15:30:50.126Z,19.06
2023-05-04T15:33:16.933Z,18.97
2023-05-04T15:35:43.707Z,19.29
2023-05-04T15:38:10.430Z,19.19
2023-05-04T15:40:38.709Z,19.20
2023-05-04T15:43:05.574Z,19.39
2023-05-04T15:45:32.310Z,19.30
2023-05-04T15:47:59.185Z,19.29
2023-05-04T15:50:26.256Z,19.06
2023-05-04T15:52:53.129Z,18.77
2023-05-04T15:55:26.021Z,18.75
2023-05-04T15:57:54.636Z,18.89
2023-05-04T16:00:21.892Z,18.76
2023-05-04T16:02:48.800Z,18.69
2023-05-04T16:05:15.664Z,18.50
2023-05-04T16:07:42.512Z,18.71
2023-05-04T16:10:10.316Z,18.77
2023-05-04T16:12:38.079Z,18.53
2023-05-04T16:15:07.272Z,18.44
2023-05-04T16:17:34.003Z,18.40
2023-05-04T16:20:01.103Z,18.54
2023-05-04T16:22:28.002Z,18.97
2023-05-04T16:24:54.976Z,19.24
2023-05-04T16:27:21.824Z,19.40
2023-05-04T16:29:48.617Z,19.49
2023-05-04T16:32:16.733Z,19.15
2023-05-04T16:34:43.486Z,19.38
2023-05-04T16:37:10.993Z,19.36
2023-05-04T16:39:38.287Z,19.28
2023-05-04T16:42:06.002Z,18.80
2023-05-04T16:44:32.756Z,18.63
2023-05-04T16:47:00.182Z,18.56
2023-05-04T16:49:29.685Z,18.46
2023-05-04T16:51:56.537Z,18.32
2023-05-04T16:54:23.619Z,18.39
2023-05-04T16:56:50.498Z,17.94
2023-05-04T16:59:17.313Z,17.64
2023-05-04T17:01:44.135Z,17.58
2023-05-04T17:04:10.997Z,17.60
2023-05-04T17:06:39.048Z,17.82
2023-05-04T17:09:05.829Z,17.90
2023-05-04T17:11:32.611Z,17.86
2023-05-04T17:13:59.506Z,17.86
2023-05-04T17:16:26.427Z,17.88
2023-05-04T17:18:53.253Z,18.01
2023-05-04T17:21:19.959Z,18.34
2023-05-04T17:23:48.145Z,18.32
2023-05-04T17:26:14.937Z,17.91
2023-05-04T17:28:41.683Z,17.48
2023-05-04T17:31:10.049Z,17.30
2023-05-04T17:33:36.873Z,17.13
2023-05-04T17:36:03.951Z,17.01
2023-05-04T17:38:30.644Z,16.94
2023-05-04T17:40:58.838Z,16.84
2023-05-04T17:43:25.610Z,16.74
2023-05-04T17:45:54.976Z,16.71
2023-05-04T17:48:22.665Z,16.64
2023-05-04T17:50:49.455Z,16.61
2023-05-04T17:53:16.285Z,16.56
2023-05-04T17:55:43.144Z,16.57
2023-05-04T17:58:11.402Z,16.46
2023-05-04T18:00:38.126Z,16.49
2023-05-04T18:03:04.982Z,16.40
2023-05-04T18:05:31.843Z,16.30
2023-05-04T18:07:58.849Z,16.22
2023-05-04T18:10:25.863Z,16.19
2023-05-04T18:12:52.751Z,16.14
2023-05-04T18:15:21.024Z,16.12
2023-05-04T18:17:49.101Z,16.06
2023-05-04T18:20:15.954Z,16.06
2023-05-04T18:22:42.771Z,15.99
2023-05-04T18:25:10.039Z,15.93
2023-05-04T18:27:37.011Z,15.92
2023-05-04T18:30:04.861Z,15.85
2023-05-04T18:32:33.292Z,15.77
2023-05-04T18:35:00.160Z,15.79
2023-05-04T18:37:27.182Z,15.79
2023-05-04T18:39:54.074Z,15.78
2023-05-04T18:42:20.755Z,15.81
2023-05-04T18:44:47.546Z,15.73
2023-05-04T18:47:14.374Z,15.62
2023-05-04T18:49:42.463Z,15.52
2023-05-04T18:52:09.177Z,15.52
2023-05-04T18:54:35.966Z,15.45
2023-05-04T18:57:02.839Z,15.47
2023-05-04T18:59:31.821Z,15.42
2023-05-04T19:01:58.793Z,15.45
2023-05-04T19:04:26.962Z,15.42
2023-05-04T19:06:55.073Z,15.32
2023-05-04T19:09:21.938Z,15.23
2023-05-04T19:11:48.770Z,15.18
2023-05-04T19:14:15.735Z,15.09
2023-05-04T19:16:42.432Z,15.20
2023-05-04T19:19:09.096Z,15.13
2023-05-04T19:21:35.835Z,15.00
2023-05-04T19:24:04.174Z,14.85
2023-05-04T19:26:31.068Z,14.74
2023-05-04T19:28:57.780Z,14.64
2023-05-04T19:31:24.697Z,14.58
2023-05-04T19:33:51.408Z,14.50
2023-05-04T19:36:18.174Z,14.46
2023-05-04T19:38:44.938Z,14.48
2023-05-04T19:41:13.312Z,14.55
2023-05-04T19:43:40.035Z,14.40
2023-05-04T19:46:07.011Z,14.32
2023-05-04T19:48:33.898Z,14.23
2023-05-04T19:51:00.657Z,14.19
2023-05-04T19:53:27.404Z,14.15
2023-05-04T19:55:54.993Z,14.04
2023-05-04T19:58:23.663Z,13.98
2023-05-04T20:00:50.403Z,13.89
2023-05-04T20:03:17.190Z,13.82
2023-05-04T20:05:44.230Z,13.82
2023-05-04T20:08:11.471Z,13.83
2023-05-04T20:10:38.333Z,13.82
2023-05-04T20:13:05.180Z,13.82
2023-05-04T20:15:33.691Z,13.78
2023-05-04T20:18:00.619Z,13.80
2023-05-04T20:20:27.517Z,13.80
2023-05-04T20:22:54.634Z,13.78
2023-05-04T20:25:21.439Z,13.69
2023-05-04T20:27:48.788Z,13.66
2023-05-04T20:30:15.610Z,13.67
2023-05-04T20:32:43.797Z,13.63
2023-05-04T20:35:10.712Z,13.57
2023-05-04T20:37:37.440Z,13.62
2023-05-04T20:40:05.268Z,13.63
2023-05-04T20:42:32.726Z,13.62
2023-05-04T20:44:59.579Z,13.55
2023-05-04T20:47:26.393Z,13.51
2023-05-04T20:49:54.556Z,13.54
2023-05-04T20:52:21.260Z,13.50
2023-05-04T20:54:47.945Z,13.46
2023-05-04T20:57:14.719Z,13.45
2023-05-04T20:59:41.707Z,13.36
2023-05-04T21:02:08.396Z,13.34
2023-05-04T21:04:35.100Z,13.27
2023-05-04T21:07:03.254Z,13.30
2023-05-04T21:09:29.960Z,13.38
2023-05-04T21:11:56.790Z,13.36
2023-05-04T21:14:23.481Z,13.38
2023-05-04T21:16:50.149Z,13.39
2023-05-04T21:19:16.880Z,13.39
2023-05-04T21:21:43.612Z,13.41
2023-05-04T21:24:12.268Z,13.46
2023-05-04T21:26:39.013Z,13.48
2023-05-04T21:29:05.855Z,13.48
2023-05-04T21:31:32.619Z,13.52
2023-05-04T21:33:59.408Z,13.52
2023-05-04T21:36:26.125Z,13.49
2023-05-04T21:38:52.821Z,13.50
2023-05-04T21:41:21.317Z,13.49
2023-05-04T21:43:48.162Z,13.44
2023-05-04T21:46:14.886Z,13.40
2023-05-04T21:48:41.699Z,13.38
2023-05-04T21:51:08.429Z,13.48
2023-05-04T21:53:35.098Z,13.52
2023-05-04T21:56:05.615Z,13.51
2023-05-04T21:58:33.900Z,13.46
2023-05-04T22:01:00.839Z,13.49
2023-05-04T22:03:28.255Z,13.51
2023-05-04T22:05:55.905Z,13.54
2023-05-04T22:08:22.637Z,13.58
2023-05-04T22:10:49.870Z,13.58
2023-05-04T22:13:16.826Z,13.51
2023-05-04T22:15:49.884Z,13.56
2023-05-04T22:18:17.435Z,13.63
2023-05-04T22:20:44.421Z,13.60
2023-05-04T22:23:11.450Z,13.62
2023-05-04T22:25:38.567Z,13.60
2023-05-04T22:28:05.625Z,13.57
2023-05-04T22:30:32.622Z,13.63
2023-05-04T22:33:00.830Z,13.66
2023-05-04T22:35:27.769Z,13.66
2023-05-04T22:37:54.422Z,13.69
2023-05-04T22:40:21.224Z,13.70
2023-05-04T22:42:48.177Z,13.69
2023-05-04T22:45:15.460Z,13.74
2023-05-04T22:47:42.406Z,13.71
2023-05-04T22:50:12.064Z,13.64
2023-05-04T22:52:38.895Z,13.61
2023-05-04T22:55:06.811Z,13.61
2023-05-04T22:57:33.516Z,13.55
2023-05-04T23:00:00.238Z,13.53
2023-05-04T23:02:27.082Z,13.52
2023-05-04T23:04:53.820Z,13.41
2023-05-04T23:07:21.899Z,13.38
2023-05-04T23:09:48.632Z,13.32
2023-05-04T23:12:15.696Z,13.30
2023-05-04T23:14:42.464Z,13.26
2023-05-04T23:17:09.387Z,13.24
2023-05-04T23:19:36.183Z,13.17
2023-05-04T23:22:02.943Z,13.16
2023-05-04T23:24:31.003Z,13.14
2023-05-04T23:26:57.832Z,13.09
2023-05-04T23:29:24.533Z,13.04
2023-05-04T23:31:51.585Z,13.01
2023-05-04T23:34:18.399Z,12.97
2023-05-04T23:36:45.238Z,13.01
2023-05-04T23:39:11.943Z,13.03
2023-05-04T23:41:40.195Z,13.03
2023-05-04T23:44:06.981Z,13.00
2023-05-04T23:46:34.079Z,12.94
2023-05-04T23:49:00.844Z,12.85
2023-05-04T23:51:27.724Z,12.86
2023-05-04T23:53:54.408Z,12.81
2023-05-04T23:56:21.189Z,12.77
2023-05-04T23:58:49.312Z,12.68
